Time;durP1;ratioP1;P1;durP2;ratioP2;P2;SDS_P1;SDS_P2;PMS_P1;PMS_P2;Temp;Humidity;BMP_temperature;BMP_pressure;BME280_temperature;BME280_humidity;BME280_pressure;Samples;Min_cycle;Max_cycle;Signal;HPM_P1;HPM_P2
2022/12/11 00:01:57;;;;;;;10.32;8.70;;;20.90;64.00;;;;;;5045224;28;20203;-31
2022/12/11 00:04:23;;;;;;;11.15;8.50;;;20.90;64.00;;;;;;5045245;28;20200;-31
2022/12/11 00:06:50;;;;;;;10.88;9.00;;;20.80;64.00;;;;;;5047200;28;20210;-31
2022/12/11 00:09:17;;;;;;;11.57;9.55;;;20.80;64.20;;;;;;5040315;28;20200;-38
2022/12/11 00:11:46;;;;;;;9.55;8.55;;;20.80;64.30;;;;;;5043904;28;20220;-35
2022/12/11 00:14:13;;;;;;;11.75;9.48;;;20.80;64.40;;;;;;5045770;28;20228;-31
2022/12/11 00:16:40;;;;;;;9.45;8.52;;;20.80;64.60;;;;;;5023835;28;21508;-34
2022/12/11 00:19:07;;;;;;;9.35;8.35;;;20.80;64.60;;;;;;5041250;28;20214;-31
2022/12/11 00:21:34;;;;;;;10.05;8.95;;;20.80;64.60;;;;;;5046965;28;20205;-32
2022/12/11 00:24:01;;;;;;;10.77;8.30;;;20.80;64.70;;;;;;5044411;28;20555;-34
2022/12/11 00:26:28;;;;;;;9.13;7.60;;;20.70;64.60;;;;;;5048496;28;20204;-33
2022/12/11 00:28:57;;;;;;;9.40;7.90;;;20.80;65.00;;;;;;5045325;28;20496;-31
2022/12/11 00:31:24;;;;;;;13.43;9.02;;;20.70;64.80;;;;;;5041538;28;20215;-31
2022/12/11 00:33:51;;;;;;;10.27;8.45;;;20.70;64.90;;;;;;5048801;28;20195;-31
2022/12/11 00:36:20;;;;;;;10.63;8.90;;;20.70;64.90;;;;;;5047414;28;20196;-31
2022/12/11 00:38:47;;;;;;;8.43;7.13;;;20.80;65.00;;;;;;5044949;28;20358;-34
2022/12/11 00:41:14;;;;;;;8.38;7.22;;;20.80;65.10;;;;;;5047998;28;20294;-38
2022/12/11 00:43:41;;;;;;;13.23;8.82;;;20.80;65.10;;;;;;5045541;28;20753;-34
2022/12/11 00:46:10;;;;;;;9.35;8.27;;;20.80;65.10;;;;;;5041991;28;20671;-38
2022/12/11 00:48:37;;;;;;;11.20;8.65;;;20.80;65.10;;;;;;5046130;28;20211;-31
2022/12/11 00:51:04;;;;;;;10.48;8.40;;;20.80;65.20;;;;;;5045513;28;20216;-30
2022/12/11 00:53:31;;;;;;;10.10;8.65;;;20.80;65.30;;;;;;5042960;28;20196;-31
2022/12/11 00:55:58;;;;;;;12.45;9.55;;;20.80;65.40;;;;;;5048271;28;20197;-31
2022/12/11 00:58:25;;;;;;;10.13;8.77;;;20.80;66.30;;;;;;5048429;28;20671;-34
2022/12/11 01:00:52;;;;;;;8.35;7.30;;;20.80;65.50;;;;;;5039246;28;20211;-32
2022/12/11 01:03:20;;;;;;;10.00;8.10;;;20.80;65.50;;;;;;5037367;28;20218;-36
2022/12/11 01:05:54;;;;;;;12.55;8.20;;;20.80;65.50;;;;;;5038303;28;20458;-36
2022/12/11 01:08:21;;;;;;;8.80;8.00;;;20.80;65.50;;;;;;5036281;28;20259;-30
2022/12/11 01:10:46;;;;;;;8.52;7.43;;;20.80;65.60;;;;;;5041139;28;20207;-32
2022/12/11 01:13:13;;;;;;;9.93;8.07;;;20.80;65.60;;;;;;5040792;28;20196;-34
2022/12/11 01:15:42;;;;;;;9.05;8.10;;;20.80;65.50;;;;;;5037230;28;20467;-31
2022/12/11 01:18:10;;;;;;;10.88;7.68;;;20.80;65.60;;;;;;5036273;28;20569;-37
2022/12/11 01:20:41;;;;;;;8.90;7.67;;;20.80;65.60;;;;;;5038573;28;20221;-35
2022/12/11 01:23:08;;;;;;;10.77;7.85;;;20.80;65.70;;;;;;5038488;28;20459;-31
2022/12/11 01:25:37;;;;;;;8.65;7.50;;;20.80;65.70;;;;;;5038857;28;20200;-31
2022/12/11 01:28:04;;;;;;;8.52;7.65;;;20.70;65.70;;;;;;5036610;28;20583;-31
2022/12/11 01:30:31;;;;;;;9.57;7.90;;;20.70;65.70;;;;;;5036514;28;20621;-35
2022/12/11 01:32:58;;;;;;;9.75;7.43;;;20.80;65.70;;;;;;5036361;28;20722;-32
2022/12/11 01:35:25;;;;;;;8.45;7.32;;;20.70;65.80;;;;;;5039298;28;20200;-39
2022/12/11 01:37:53;;;;;;;8.77;7.53;;;20.70;65.80;;;;;;5035524;28;20195;-35
2022/12/11 01:40:24;;;;;;;9.07;8.00;;;20.70;65.80;;;;;;5041991;28;20457;-35
2022/12/11 01:42:50;;;;;;;10.03;7.80;;;20.70;65.90;;;;;;5043969;28;20599;-32
2022/12/11 01:45:28;;;;;;;8.20;6.95;;;20.70;65.80;;;;;;5032692;28;20647;-38
2022/12/11 01:48:00;;;;;;;8.77;7.88;;;20.70;65.80;;;;;;5046873;28;20207;-34
2022/12/11 01:50:28;;;;;;;7.05;6.40;;;20.70;65.90;;;;;;5042968;28;20960;-31
2022/12/11 01:52:57;;;;;;;9.35;7.25;;;20.70;66.00;;;;;;5037416;28;20231;-30
2022/12/11 01:55:24;;;;;;;7.60;6.78;;;20.70;66.10;;;;;;5035576;28;20197;-33
2022/12/11 01:57:52;;;;;;;8.50;7.10;;;20.70;66.00;;;;;;5040376;28;20204;-34
2022/12/11 02:00:19;;;;;;;8.50;7.53;;;20.80;66.10;;;;;;5043667;28;20197;-31
2022/12/11 02:02:46;;;;;;;7.63;6.70;;;20.70;66.00;;;;;;5036949;28;20211;-36
2022/12/11 02:05:13;;;;;;;8.48;7.55;;;20.70;66.00;;;;;;5034541;28;20458;-36
2022/12/11 02:07:43;;;;;;;7.40;6.70;;;20.70;66.00;;;;;;5036739;28;20208;-33
2022/12/11 02:10:12;;;;;;;8.10;7.10;;;20.70;66.00;;;;;;5036648;28;20197;-34
2022/12/11 02:12:47;;;;;;;8.27;7.37;;;20.70;66.10;;;;;;5038544;28;20273;-35
2022/12/11 02:15:21;;;;;;;7.23;6.53;;;20.70;66.10;;;;;;5031154;28;20456;-31
2022/12/11 02:17:53;;;;;;;8.15;7.00;;;20.70;66.20;;;;;;5030393;28;20468;-34
2022/12/11 02:20:23;;;;;;;8.13;6.32;;;20.70;66.20;;;;;;5036570;28;20603;-36
2022/12/11 02:23:05;;;;;;;7.80;7.05;;;20.70;66.20;;;;;;5035252;28;20215;-32
2022/12/11 02:25:41;;;;;;;6.63;5.93;;;20.70;66.20;;;;;;5037998;28;20565;-34
2022/12/11 02:28:18;;;;;;;7.97;7.18;;;20.70;66.20;;;;;;5039104;28;20465;-31
2022/12/11 02:30:50;;;;;;;8.48;6.65;;;20.70;66.20;;;;;;5040492;28;20192;-33
2022/12/11 02:33:21;;;;;;;7.40;6.68;;;20.70;66.20;;;;;;5045187;28;20311;-32
2022/12/11 02:35:49;;;;;;;7.75;6.30;;;20.70;66.20;;;;;;5040985;28;20196;-32
2022/12/11 02:38:21;;;;;;;6.43;5.80;;;20.70;66.20;;;;;;5043095;28;20204;-30
2022/12/11 02:40:51;;;;;;;9.38;6.43;;;20.70;66.20;;;;;;5045395;28;20473;-32
2022/12/11 02:43:22;;;;;;;8.07;6.27;;;20.70;66.20;;;;;;5044401;28;20207;-30
2022/12/11 02:45:50;;;;;;;7.57;6.32;;;20.70;66.30;;;;;;5042718;28;20819;-34
2022/12/11 02:48:19;;;;;;;7.10;6.40;;;20.70;66.30;;;;;;5045089;28;20201;-33
2022/12/11 02:50:48;;;;;;;6.95;6.25;;;20.70;66.30;;;;;;5050239;28;20454;-33
2022/12/11 02:53:19;;;;;;;6.53;5.93;;;20.70;66.30;;;;;;5045710;28;20231;-36
2022/12/11 02:55:50;;;;;;;7.68;6.65;;;20.70;66.40;;;;;;5047762;28;20200;-32
2022/12/11 02:58:22;;;;;;;8.80;6.32;;;20.70;66.40;;;;;;5045700;28;20192;-37
2022/12/11 03:00:48;;;;;;;6.88;5.97;;;20.70;66.40;;;;;;5046308;28;20209;-36
2022/12/11 03:03:15;;;;;;;8.40;6.68;;;20.70;66.40;;;;;;5047881;28;20195;-33
2022/12/11 03:05:44;;;;;;;7.25;5.93;;;20.70;66.40;;;;;;5047182;28;20287;-31
2022/12/11 03:08:16;;;;;;;7.80;6.47;;;20.70;66.40;;;;;;5048149;28;20319;-38
2022/12/11 03:10:42;;;;;;;7.68;6.30;;;20.70;66.30;;;;;;5046077;28;20210;-32
2022/12/11 03:13:10;;;;;;;9.60;7.13;;;20.70;66.40;;;;;;5045594;28;20250;-33
2022/12/11 03:15:55;;;;;;;7.13;6.38;;;20.70;66.40;;;;;;5043485;28;20201;-34
2022/12/11 03:18:30;;;;;;;7.35;6.43;;;20.70;66.40;;;;;;5045244;28;20265;-32
2022/12/11 03:21:04;;;;;;;7.35;6.22;;;20.70;66.40;;;;;;5046006;28;20218;-35
2022/12/11 03:23:36;;;;;;;6.53;5.90;;;20.70;66.40;;;;;;5048342;28;20196;-31
2022/12/11 03:26:06;;;;;;;7.70;6.95;;;20.70;66.30;;;;;;5047517;28;20462;-31
2022/12/11 03:28:40;;;;;;;7.40;5.97;;;20.70;66.40;;;;;;5048166;28;20210;-31
2022/12/11 03:31:13;;;;;;;6.78;6.13;;;20.70;66.40;;;;;;5046886;28;20195;-32
2022/12/11 03:33:43;;;;;;;7.25;6.40;;;20.70;66.40;;;;;;5046244;28;20228;-36
2022/12/11 03:36:13;;;;;;;6.50;5.73;;;20.70;66.40;;;;;;5041841;28;20200;-31
2022/12/11 03:38:47;;;;;;;6.22;5.63;;;20.70;66.40;;;;;;5043524;28;20455;-32
2022/12/11 03:41:15;;;;;;;6.15;5.53;;;20.70;66.40;;;;;;5045880;28;20195;-36
2022/12/11 03:43:44;;;;;;;6.25;5.55;;;20.70;66.40;;;;;;5045484;28;20207;-31
2022/12/11 03:46:13;;;;;;;7.43;6.50;;;20.70;66.40;;;;;;5043137;28;20215;-34
2022/12/11 03:48:42;;;;;;;6.00;5.40;;;20.70;66.40;;;;;;5047832;28;20253;-34
2022/12/11 03:51:09;;;;;;;7.00;5.95;;;20.70;66.30;;;;;;5046902;28;20215;-34
2022/12/11 03:53:38;;;;;;;7.90;6.60;;;20.70;66.40;;;;;;5043187;28;20235;-32
2022/12/11 03:56:06;;;;;;;6.40;5.80;;;20.70;66.40;;;;;;5043138;28;20199;-31
2022/12/11 03:58:33;;;;;;;7.55;6.25;;;20.70;66.50;;;;;;5046166;28;20195;-31
2022/12/11 04:01:00;;;;;;;6.68;6.07;;;20.70;66.40;;;;;;5046578;28;20279;-30
2022/12/11 04:03:28;;;;;;;6.70;6.00;;;20.70;66.40;;;;;;5047830;28;20699;-31
2022/12/11 04:05:56;;;;;;;6.43;5.80;;;20.70;66.40;;;;;;5048422;28;20188;-31
2022/12/11 04:08:23;;;;;;;6.32;5.72;;;20.60;66.20;;;;;;5049897;28;20203;-30
2022/12/11 04:11:33;;;;;;;7.15;5.80;;;20.70;66.30;;;;;;5051042;28;20192;-34
2022/12/11 04:13:39;;;;;;;6.53;5.93;;;20.70;66.30;;;;;;5044070;28;20318;-35
2022/12/11 04:16:06;;;;;;;6.65;5.75;;;20.60;66.10;;;;;;5039493;28;20204;-39
2022/12/11 04:24:17;;;;;;;6.72;6.05;;;20.60;66.60;;;;;;5040831;28;20210;-30
2022/12/11 04:26:45;;;;;;;6.75;6.05;;;20.50;66.50;;;;;;5047686;28;20568;-30
2022/12/11 04:29:11;;;;;;;7.00;5.90;;;20.50;66.50;;;;;;5046651;28;20212;-35
2022/12/11 04:31:38;;;;;;;6.95;6.20;;;20.50;66.50;;;;;;5046635;28;20399;-32
2022/12/11 04:34:06;;;;;;;6.30;5.05;;;20.60;66.50;;;;;;5051948;28;20226;-31
2022/12/11 04:36:33;;;;;;;7.38;5.55;;;20.60;66.40;;;;;;5047033;28;20612;-33
2022/12/11 04:39:00;;;;;;;6.68;6.05;;;20.70;66.40;;;;;;5044001;28;20188;-31
2022/12/11 04:41:26;;;;;;;5.97;5.43;;;20.70;66.30;;;;;;5045829;28;20197;-31
2022/12/11 04:43:53;;;;;;;6.93;5.25;;;20.70;66.20;;;;;;5034952;28;20568;-32
2022/12/11 04:46:21;;;;;;;5.55;5.05;;;20.80;66.20;;;;;;5040830;28;20207;-32
2022/12/11 04:48:49;;;;;;;7.00;6.20;;;20.80;66.10;;;;;;5047558;28;20210;-31
2022/12/11 04:51:17;;;;;;;6.03;5.45;;;20.80;66.10;;;;;;5046444;28;20206;-40
2022/12/11 04:53:45;;;;;;;5.40;4.90;;;20.90;66.10;;;;;;5043675;28;20765;-30
2022/12/11 04:56:14;;;;;;;6.18;5.50;;;20.80;66.10;;;;;;5051598;28;20474;-31
2022/12/11 04:58:41;;;;;;;5.90;5.30;;;20.80;66.10;;;;;;5045714;28;20195;-31
2022/12/11 05:01:08;;;;;;;5.85;5.25;;;20.80;66.10;;;;;;5044748;28;20556;-37
2022/12/11 05:03:35;;;;;;;5.65;5.15;;;20.80;66.20;;;;;;5044449;28;20291;-35
2022/12/11 05:06:02;;;;;;;7.32;6.22;;;20.80;66.30;;;;;;5045165;28;20199;-31
2022/12/11 05:08:30;;;;;;;6.28;5.65;;;20.70;66.20;;;;;;5038546;28;20202;-31
2022/12/11 05:10:57;;;;;;;6.55;5.55;;;20.70;66.20;;;;;;5045832;28;20197;-31
2022/12/11 05:13:24;;;;;;;6.90;5.90;;;20.70;66.50;;;;;;5042443;28;20212;-36
2022/12/11 05:15:50;;;;;;;6.00;5.40;;;20.70;66.20;;;;;;5039937;28;20199;-31
2022/12/11 05:18:17;;;;;;;7.47;6.45;;;20.70;66.30;;;;;;5044736;28;20855;-31
2022/12/11 05:20:44;;;;;;;6.53;5.93;;;20.70;66.20;;;;;;5045785;28;20215;-34
2022/12/11 05:23:11;;;;;;;5.70;5.10;;;20.70;66.30;;;;;;5042815;28;20200;-38
2022/12/11 05:25:39;;;;;;;7.70;5.13;;;20.70;66.30;;;;;;5040132;28;20880;-33
2022/12/11 05:28:05;;;;;;;6.32;5.72;;;20.60;66.30;;;;;;5047499;28;20389;-31
2022/12/11 05:30:33;;;;;;;8.55;6.55;;;20.60;66.20;;;;;;5041874;28;20205;-31
2022/12/11 05:32:59;;;;;;;6.35;5.75;;;20.70;66.40;;;;;;5046899;28;20238;-32
2022/12/11 05:35:26;;;;;;;6.60;5.53;;;20.60;66.40;;;;;;5043740;28;20366;-34
2022/12/11 05:37:52;;;;;;;6.22;5.63;;;20.60;66.50;;;;;;5037248;28;20482;-31
2022/12/11 05:40:19;;;;;;;7.03;6.32;;;20.60;66.40;;;;;;5042891;28;20207;-37
2022/12/11 05:42:47;;;;;;;6.97;5.17;;;20.60;66.50;;;;;;5042401;28;20200;-39
2022/12/11 05:45:14;;;;;;;7.35;5.82;;;20.60;66.50;;;;;;5040668;28;20478;-35
2022/12/11 05:47:41;;;;;;;5.95;5.35;;;20.50;66.50;;;;;;5045697;28;20282;-31
2022/12/11 05:50:09;;;;;;;6.38;5.68;;;20.50;66.50;;;;;;5048648;28;20241;-30
2022/12/11 05:52:36;;;;;;;6.00;5.43;;;20.50;66.50;;;;;;5046863;28;20216;-36
2022/12/11 05:55:03;;;;;;;5.68;5.10;;;20.50;66.70;;;;;;5046531;28;20201;-37
2022/12/11 05:57:30;;;;;;;6.30;5.72;;;20.50;66.60;;;;;;5043742;28;20210;-31
2022/12/11 05:59:58;;;;;;;5.93;5.32;;;20.50;66.60;;;;;;5043079;28;20218;-36
2022/12/11 06:02:24;;;;;;;5.80;5.20;;;20.50;66.50;;;;;;5046069;28;20199;-34
2022/12/11 06:04:51;;;;;;;7.03;5.78;;;20.50;66.60;;;;;;5046751;28;20568;-33
2022/12/11 06:07:18;;;;;;;7.75;5.72;;;20.50;66.60;;;;;;5046449;28;20203;-34
2022/12/11 06:09:44;;;;;;;5.95;5.00;;;20.60;66.70;;;;;;5050973;28;20195;-35
2022/12/11 06:12:11;;;;;;;7.00;6.30;;;20.50;66.50;;;;;;5047402;28;20201;-35
2022/12/11 06:14:38;;;;;;;6.18;5.63;;;20.60;67.40;;;;;;5041250;28;20197;-32
2022/12/11 06:17:06;;;;;;;7.00;5.57;;;20.60;66.60;;;;;;5023787;28;20963;-37
2022/12/11 06:19:32;;;;;;;5.40;4.77;;;20.50;66.50;;;;;;5042489;28;20246;-39
2022/12/11 06:21:59;;;;;;;6.25;5.65;;;20.60;66.60;;;;;;5043158;28;20589;-33
2022/12/11 06:24:26;;;;;;;5.60;5.00;;;20.60;66.60;;;;;;5045196;28;20550;-31
2022/12/11 06:26:53;;;;;;;5.80;5.30;;;20.60;66.60;;;;;;5049256;28;20203;-35
2022/12/11 06:29:19;;;;;;;5.30;4.80;;;20.60;67.40;;;;;;5045893;28;20595;-33
2022/12/11 06:31:46;;;;;;;6.10;5.50;;;20.60;66.50;;;;;;5049334;28;20188;-33
2022/12/11 06:34:14;;;;;;;5.75;4.93;;;20.60;66.60;;;;;;5047791;28;20233;-42
2022/12/11 06:36:41;;;;;;;6.50;5.40;;;20.60;66.60;;;;;;5048532;28;20192;-34
2022/12/11 06:39:08;;;;;;;5.43;4.82;;;20.60;66.60;;;;;;5044282;28;20941;-37
2022/12/11 06:41:35;;;;;;;7.70;5.90;;;20.60;66.40;;;;;;5047507;28;20227;-35
2022/12/11 06:44:01;;;;;;;5.40;4.85;;;20.60;66.80;;;;;;5047921;28;20459;-38
2022/12/11 06:46:28;;;;;;;6.45;5.85;;;20.60;66.50;;;;;;5045028;28;20931;-38
2022/12/11 06:48:55;;;;;;;6.80;5.55;;;20.60;66.50;;;;;;5048426;28;20200;-41
2022/12/11 06:51:23;;;;;;;6.00;5.40;;;20.60;66.50;;;;;;5049179;28;20196;-39
2022/12/11 06:53:54;;;;;;;5.60;5.10;;;20.60;66.50;;;;;;5044794;28;20283;-32
2022/12/11 06:56:21;;;;;;;6.17;5.57;;;20.50;66.50;;;;;;5049753;28;20286;-31
2022/12/11 06:58:48;;;;;;;7.50;5.40;;;20.50;66.50;;;;;;5048612;28;20470;-37
2022/12/11 07:01:17;;;;;;;7.00;5.50;;;20.50;66.50;;;;;;5044403;28;20191;-31
2022/12/11 07:03:44;;;;;;;5.95;5.20;;;20.50;66.60;;;;;;5045528;28;20199;-36
2022/12/11 07:06:11;;;;;;;5.73;5.17;;;20.50;66.50;;;;;;5042256;28;20205;-31
2022/12/11 07:08:40;;;;;;;6.15;5.50;;;20.50;66.50;;;;;;5046246;28;20452;-31
2022/12/11 07:11:08;;;;;;;7.20;5.77;;;20.50;66.70;;;;;;5048290;28;20204;-34
2022/12/11 07:13:35;;;;;;;5.35;4.85;;;20.50;66.60;;;;;;5046009;28;20501;-31
2022/12/11 07:16:04;;;;;;;7.22;6.53;;;20.40;66.50;;;;;;5042069;28;20202;-39
2022/12/11 07:18:31;;;;;;;6.05;4.68;;;20.40;66.60;;;;;;5048671;28;20634;-33
2022/12/11 07:20:59;;;;;;;7.45;5.50;;;20.50;66.60;;;;;;5049704;28;20240;-34
2022/12/11 07:23:27;;;;;;;6.20;5.35;;;20.50;66.60;;;;;;5046497;28;20205;-35
2022/12/11 07:25:55;;;;;;;6.00;5.40;;;20.40;66.60;;;;;;5048930;28;20201;-31
2022/12/11 07:28:22;;;;;;;5.20;4.70;;;20.50;66.80;;;;;;5048432;28;20211;-31
2022/12/11 07:30:48;;;;;;;5.85;5.25;;;20.50;66.80;;;;;;5039496;28;20196;-32
2022/12/11 07:33:15;;;;;;;6.20;5.53;;;20.40;66.70;;;;;;5043493;28;20216;-38
2022/12/11 07:35:42;;;;;;;6.22;5.63;;;20.50;66.70;;;;;;5047367;28;20193;-34
2022/12/11 07:38:09;;;;;;;5.85;5.28;;;20.40;66.70;;;;;;5046393;28;20203;-31
2022/12/11 07:40:35;;;;;;;6.13;5.50;;;20.40;66.70;;;;;;5047658;28;20781;-31
2022/12/11 07:43:03;;;;;;;5.95;5.35;;;20.40;66.70;;;;;;5043298;28;20199;-36
2022/12/11 07:45:30;;;;;;;5.25;4.55;;;20.40;66.80;;;;;;5038579;28;20550;-37
2022/12/11 07:47:57;;;;;;;6.20;4.68;;;20.40;66.70;;;;;;5047710;28;20195;-32
2022/12/11 07:50:24;;;;;;;6.35;5.07;;;20.40;66.70;;;;;;5045137;28;20223;-35
2022/12/11 07:52:51;;;;;;;6.30;5.70;;;20.50;66.80;;;;;;5047753;28;20199;-35
2022/12/11 07:55:18;;;;;;;5.40;4.90;;;20.50;66.80;;;;;;5045160;28;20283;-36
2022/12/11 07:57:44;;;;;;;5.70;5.15;;;20.50;66.80;;;;;;5046098;28;20208;-36
2022/12/11 08:00:13;;;;;;;6.85;4.90;;;20.50;66.70;;;;;;5044266;28;20207;-37
2022/12/11 08:02:40;;;;;;;5.10;4.60;;;20.50;66.70;;;;;;5048498;28;20360;-31
2022/12/11 08:05:08;;;;;;;5.20;4.70;;;20.50;66.70;;;;;;5048100;28;20199;-35
2022/12/11 08:07:35;;;;;;;6.60;5.30;;;20.50;66.90;;;;;;5043035;28;20267;-31
2022/12/11 08:10:02;;;;;;;5.40;4.60;;;20.50;66.60;;;;;;5047140;28;20200;-32
2022/12/11 08:12:29;;;;;;;5.85;5.35;;;20.50;66.90;;;;;;5043066;28;20459;-35
2022/12/11 08:14:55;;;;;;;5.43;4.80;;;20.50;66.80;;;;;;5040654;28;20709;-33
2022/12/11 08:17:23;;;;;;;4.80;4.30;;;20.40;66.90;;;;;;5036978;28;20526;-38
2022/12/11 08:19:50;;;;;;;5.80;5.20;;;20.40;66.90;;;;;;5039453;28;20269;-31
2022/12/11 08:22:17;;;;;;;7.53;5.38;;;20.40;66.90;;;;;;5046720;28;20206;-35
2022/12/11 08:24:44;;;;;;;5.35;4.70;;;20.30;66.90;;;;;;5042241;28;20683;-33
2022/12/11 08:27:10;;;;;;;5.45;4.32;;;20.40;67.10;;;;;;5047925;28;20193;-33
2022/12/11 08:29:37;;;;;;;5.63;4.35;;;20.30;67.30;;;;;;5040903;28;20279;-38
2022/12/11 08:32:04;;;;;;;6.53;5.20;;;20.30;67.30;;;;;;5044941;28;20200;-33
2022/12/11 08:34:33;;;;;;;4.60;4.18;;;20.30;67.40;;;;;;5047123;28;20221;-35
2022/12/11 08:36:59;;;;;;;5.88;5.32;;;20.30;67.40;;;;;;5048263;28;20227;-32
2022/12/11 08:39:26;;;;;;;5.13;4.45;;;20.40;67.40;;;;;;5047253;28;20200;-32
2022/12/11 08:41:53;;;;;;;6.22;4.50;;;20.40;67.10;;;;;;5046713;28;20221;-33
2022/12/11 08:44:23;;;;;;;5.20;4.70;;;20.50;67.00;;;;;;5038529;28;20204;-32
2022/12/11 08:46:49;;;;;;;4.53;4.07;;;20.50;66.90;;;;;;5043033;28;20740;-40
2022/12/11 08:49:16;;;;;;;4.57;4.18;;;20.60;66.80;;;;;;5043889;28;20204;-32
2022/12/11 08:51:44;;;;;;;6.15;4.78;;;20.70;66.80;;;;;;5046881;28;20195;-31
2022/12/11 08:54:11;;;;;;;5.90;5.32;;;20.70;66.70;;;;;;5040577;28;20593;-34
2022/12/11 08:56:37;;;;;;;5.60;4.85;;;20.70;67.40;;;;;;5045929;28;20205;-33
2022/12/11 08:59:05;;;;;;;6.05;5.15;;;20.60;67.60;;;;;;5044611;28;20275;-31
2022/12/11 09:01:31;;;;;;;9.73;8.30;;;20.60;68.00;;;;;;5041281;28;20301;-38
2022/12/11 09:03:58;;;;;;;8.77;6.80;;;20.30;65.20;;;;;;5047955;28;20200;-32
2022/12/11 09:06:27;;;;;;;8.52;7.50;;;20.30;65.70;;;;;;5045040;28;20790;-31
2022/12/11 09:08:58;;;;;;;6.85;5.55;;;20.40;65.60;;;;;;5041661;28;20201;-36
2022/12/11 09:11:27;;;;;;;16.95;6.63;;;20.50;65.60;;;;;;5044210;28;20929;-32
2022/12/11 09:13:55;;;;;;;6.50;5.80;;;20.50;65.60;;;;;;5043384;28;20217;-32
2022/12/11 09:16:24;;;;;;;7.32;6.05;;;20.50;65.90;;;;;;5049512;28;20192;-33
2022/12/11 09:19:47;;;;;;;7.07;6.15;;;20.50;66.00;;;;;;5002003;28;20238;-32
2022/12/11 09:22:13;;;;;;;6.00;5.40;;;20.50;66.10;;;;;;5043298;28;20211;-39
2022/12/11 09:24:42;;;;;;;6.33;5.73;;;20.60;66.30;;;;;;5038695;28;20484;-37
2022/12/11 09:27:09;;;;;;;8.63;5.97;;;20.50;66.20;;;;;;5046497;28;20476;-32
2022/12/11 09:29:35;;;;;;;7.00;6.30;;;20.50;66.20;;;;;;5041712;28;20199;-31
2022/12/11 09:32:04;;;;;;;6.90;6.22;;;20.50;66.20;;;;;;5041413;28;20188;-34
2022/12/11 09:34:31;;;;;;;6.90;6.03;;;20.50;66.30;;;;;;5047087;28;20223;-31
2022/12/11 09:36:58;;;;;;;9.35;7.13;;;20.40;66.00;;;;;;5046585;28;20300;-36
2022/12/11 09:39:25;;;;;;;6.25;5.50;;;20.40;66.20;;;;;;5050628;28;20192;-39
2022/12/11 09:42:00;;;;;;;9.60;7.40;;;20.40;66.40;;;;;;5045526;28;20203;-33
2022/12/11 09:44:40;;;;;;;8.05;6.85;;;20.40;65.80;;;;;;5049746;28;20219;-32
2022/12/11 09:47:22;;;;;;;7.05;6.35;;;20.40;65.20;;;;;;5044645;28;20189;-32
2022/12/11 09:49:53;;;;;;;6.53;5.32;;;20.40;64.70;;;;;;5048674;28;20191;-34
2022/12/11 09:52:23;;;;;;;6.95;4.82;;;20.40;67.40;;;;;;5044491;28;20193;-35
2022/12/11 09:54:53;;;;;;;6.80;5.68;;;20.40;69.70;;;;;;5045866;28;20583;-31
2022/12/11 09:57:31;;;;;;;6.20;5.60;;;20.50;69.70;;;;;;5049726;28;20204;-32
2022/12/11 10:00:24;;;;;;;6.93;6.22;;;20.50;68.40;;;;;;5047946;28;20230;-32
2022/12/11 10:03:26;;;;;;;6.57;5.65;;;20.60;67.90;;;;;;5048290;28;20194;-39
2022/12/11 10:05:58;;;;;;;5.55;4.97;;;20.60;67.50;;;;;;5041756;28;20195;-40
2022/12/11 10:08:33;;;;;;;10.07;5.70;;;20.70;67.70;;;;;;5044440;28;20234;-40
2022/12/11 10:11:15;;;;;;;10.70;9.60;;;20.70;67.50;;;;;;5040880;28;20682;-42
2022/12/11 10:13:49;;;;;;;24.00;17.40;;;21.10;60.20;;;;;;5041643;28;20224;-41
2022/12/11 10:16:25;;;;;;;28.80;20.63;;;19.00;53.70;;;;;;5042141;28;20567;-39
2022/12/11 10:18:53;;;;;;;25.80;20.63;;;17.30;53.20;;;;;;5031692;28;20206;-41
2022/12/11 10:21:20;;;;;;;27.20;20.65;;;16.20;53.20;;;;;;5041503;28;20603;-44
2022/12/11 10:23:52;;;;;;;30.10;21.08;;;15.90;53.30;;;;;;5044845;28;20223;-45
2022/12/11 10:26:21;;;;;;;29.95;20.33;;;15.90;52.80;;;;;;5046915;28;21191;-38
2022/12/11 10:28:49;;;;;;;28.00;19.02;;;16.00;54.00;;;;;;5040472;28;20215;-34
2022/12/11 10:31:18;;;;;;;23.42;17.63;;;17.20;54.30;;;;;;5048520;28;20195;-35
2022/12/11 10:33:55;;;;;;;26.50;17.58;;;18.10;53.30;;;;;;5048565;28;20257;-36
2022/12/11 10:36:29;;;;;;;19.13;15.05;;;18.70;53.10;;;;;;5040564;28;20558;-36
2022/12/11 10:38:56;;;;;;;20.85;14.27;;;19.10;54.00;;;;;;5053850;28;20231;-37
2022/12/11 10:41:30;;;;;;;21.15;13.65;;;19.30;54.20;;;;;;5036168;28;20192;-35
2022/12/11 10:44:00;;;;;;;21.80;14.05;;;19.50;54.70;;;;;;5041612;28;20208;-37
2022/12/11 10:46:31;;;;;;;16.27;11.82;;;19.70;55.10;;;;;;5040422;28;20198;-34
2022/12/11 10:49:00;;;;;;;18.20;13.30;;;19.80;55.40;;;;;;5041218;28;20192;-36
2022/12/11 10:51:36;;;;;;;15.43;11.60;;;19.90;55.60;;;;;;5048779;28;20564;-36
2022/12/11 10:54:06;;;;;;;14.32;11.93;;;20.00;55.90;;;;;;5046606;28;20226;-38
2022/12/11 10:56:35;;;;;;;13.20;11.57;;;20.10;56.10;;;;;;5048441;28;20207;-37
2022/12/11 10:59:04;;;;;;;15.63;9.90;;;20.10;56.40;;;;;;5049489;28;20576;-34
2022/12/11 11:01:32;;;;;;;13.38;11.52;;;20.10;56.60;;;;;;5045723;28;20202;-34
2022/12/11 11:04:03;;;;;;;14.55;10.52;;;20.20;56.90;;;;;;5044238;28;20199;-35
2022/12/11 11:06:30;;;;;;;12.98;10.38;;;20.20;57.10;;;;;;5043808;28;20276;-39
2022/12/11 11:08:58;;;;;;;13.70;11.85;;;20.10;57.30;;;;;;5046821;28;20197;-41
2022/12/11 11:11:28;;;;;;;11.32;10.07;;;20.10;57.60;;;;;;5051538;28;20196;-40
2022/12/11 11:14:12;;;;;;;14.82;10.65;;;20.10;57.80;;;;;;5045917;28;20564;-34
2022/12/11 11:16:40;;;;;;;11.38;10.10;;;20.00;57.90;;;;;;5043453;28;20257;-35
2022/12/11 11:19:14;;;;;;;14.45;10.77;;;20.00;58.20;;;;;;5056644;28;20211;-35
2022/12/11 11:21:49;;;;;;;13.25;9.75;;;20.00;58.30;;;;;;5045901;28;20194;-35
2022/12/11 11:24:33;;;;;;;11.55;10.32;;;20.00;58.50;;;;;;5055265;28;20199;-39
2022/12/11 11:27:00;;;;;;;12.40;10.07;;;20.00;58.70;;;;;;5051661;28;20187;-41
2022/12/11 11:29:31;;;;;;;11.75;10.27;;;19.90;58.70;;;;;;5045161;28;20856;-37
2022/12/11 11:32:17;;;;;;;10.35;8.52;;;20.00;59.00;;;;;;5046618;28;20192;-38
2022/12/11 11:34:43;;;;;;;11.02;9.10;;;19.90;59.00;;;;;;5046571;28;20218;-35
2022/12/11 11:37:28;;;;;;;10.68;8.63;;;19.90;59.20;;;;;;5047941;28;20595;-40
2022/12/11 11:40:01;;;;;;;11.30;9.20;;;19.90;59.40;;;;;;5052348;28;20219;-39
2022/12/11 11:42:41;;;;;;;10.88;9.27;;;19.90;59.40;;;;;;5044994;28;20196;-38
2022/12/11 11:45:15;;;;;;;12.43;9.52;;;19.90;59.60;;;;;;5046877;28;20595;-40
2022/12/11 11:47:50;;;;;;;10.90;8.85;;;19.90;59.90;;;;;;5035118;28;20199;-46
2022/12/11 11:50:20;;;;;;;9.73;8.73;;;20.00;60.70;;;;;;5042580;28;20211;-48
2022/12/11 11:52:51;;;;;;;12.02;8.95;;;20.10;61.00;;;;;;5048987;28;20200;-47
2022/12/11 11:55:27;;;;;;;9.95;7.22;;;20.10;61.00;;;;;;5049460;28;20223;-43
2022/12/11 11:57:58;;;;;;;10.20;8.70;;;20.10;61.20;;;;;;5050663;28;20284;-47
2022/12/11 12:00:28;;;;;;;8.48;7.53;;;20.10;61.80;;;;;;5048154;28;20578;-45
2022/12/11 12:02:57;;;;;;;10.07;8.15;;;20.20;62.20;;;;;;5042765;28;20483;-49
2022/12/11 12:05:28;;;;;;;9.57;7.85;;;20.30;62.10;;;;;;5044257;28;20196;-47
2022/12/11 12:08:06;;;;;;;10.05;8.07;;;20.40;62.20;;;;;;5041413;28;20206;-47
2022/12/11 12:10:41;;;;;;;9.82;7.32;;;20.40;62.30;;;;;;5040639;28;20203;-45
2022/12/11 12:13:16;;;;;;;9.60;8.52;;;20.40;62.50;;;;;;5040759;28;20199;-49
2022/12/11 12:15:51;;;;;;;7.78;7.03;;;20.40;62.60;;;;;;5042270;28;20226;-48
2022/12/11 12:18:28;;;;;;;8.35;6.90;;;20.40;62.70;;;;;;5036484;28;20199;-39
2022/12/11 12:21:00;;;;;;;8.35;7.55;;;20.50;62.90;;;;;;5029043;28;20220;-39
2022/12/11 12:23:52;;;;;;;7.90;7.10;;;20.40;62.90;;;;;;5043616;28;20207;-42
2022/12/11 12:26:26;;;;;;;9.32;6.88;;;20.50;63.10;;;;;;5041241;28;20199;-38
2022/12/11 12:29:02;;;;;;;9.88;7.60;;;20.50;63.30;;;;;;5039226;28;20194;-37
2022/12/11 12:31:43;;;;;;;12.40;7.18;;;20.60;63.40;;;;;;5042193;28;20210;-41
2022/12/11 12:34:19;;;;;;;7.63;6.82;;;20.60;63.40;;;;;;5040830;28;20204;-40
2022/12/11 12:36:50;;;;;;;7.05;6.35;;;;;;;;;;5039639;28;20198;-38
2022/12/11 12:39:25;;;;;;;8.40;6.85;;;20.60;62.90;;;;;;5041262;28;20203;-41
2022/12/11 12:41:58;;;;;;;7.93;7.05;;;20.60;63.70;;;;;;5035584;28;20203;-39
2022/12/11 12:44:26;;;;;;;8.82;7.75;;;20.50;64.00;;;;;;5039042;28;20199;-40
2022/12/11 12:46:58;;;;;;;7.65;6.65;;;20.60;64.20;;;;;;5036565;28;20249;-41
2022/12/11 12:49:34;;;;;;;8.13;6.32;;;20.60;64.30;;;;;;5038084;28;20192;-41
2022/12/11 12:52:01;;;;;;;8.27;6.82;;;20.60;64.40;;;;;;5036151;28;20188;-40
2022/12/11 12:54:30;;;;;;;7.85;7.00;;;20.50;64.50;;;;;;5038318;28;20219;-40
2022/12/11 12:56:58;;;;;;;7.85;6.65;;;20.40;64.70;;;;;;5039665;28;20202;-39
2022/12/11 12:59:27;;;;;;;7.28;6.55;;;20.30;67.40;;;;;;5038582;28;20278;-38
2022/12/11 13:01:58;;;;;;;8.38;6.63;;;20.30;66.70;;;;;;5040024;28;20295;-39